Time;durP1;ratioP1;P1;durP2;ratioP2;P2;SDS_P1;SDS_P2;PMS_P1;PMS_P2;Temp;Humidity;BMP_temperature;BMP_pressure;BME280_temperature;BME280_humidity;BME280_pressure;Samples;Min_cycle;Max_cycle;Signal;HPM_P1;HPM_P2
2023/06/10 00:02:03;;;;;;;6.17;5.87;;;22.60;46.40;;;;;;5035234;28;20538;-66
2023/06/10 00:04:29;;;;;;;5.10;4.80;;;22.60;46.40;;;;;;5036704;28;20541;-66
2023/06/10 00:06:55;;;;;;;5.70;5.37;;;22.60;46.40;;;;;;5033742;28;20284;-66
2023/06/10 00:09:21;;;;;;;6.00;5.70;;;22.60;46.50;;;;;;5033845;28;20234;-66
2023/06/10 00:11:47;;;;;;;5.90;5.53;;;22.60;46.40;;;;;;5030239;28;20297;-66
2023/06/10 00:14:13;;;;;;;5.00;4.80;;;22.60;46.50;;;;;;5033901;28;20269;-66
2023/06/10 00:16:38;;;;;;;5.07;4.87;;;22.60;46.50;;;;;;5032675;28;20470;-66
2023/06/10 00:19:05;;;;;;;5.47;5.27;;;22.60;46.40;;;;;;5030706;28;20525;-66
2023/06/10 00:21:39;;;;;;;5.43;5.10;;;22.60;46.40;;;;;;5031324;28;20226;-66
2023/06/10 00:24:07;;;;;;;5.47;5.23;;;22.60;46.40;;;;;;5029477;28;21005;-66
2023/06/10 00:26:33;;;;;;;5.50;5.20;;;22.60;46.50;;;;;;5033455;28;20624;-66
2023/06/10 00:28:59;;;;;;;5.83;5.53;;;22.60;46.50;;;;;;5033424;28;20483;-66
2023/06/10 00:31:26;;;;;;;5.33;5.10;;;22.60;46.50;;;;;;5028382;28;20942;-66
2023/06/10 00:33:52;;;;;;;5.47;5.17;;;22.60;46.60;;;;;;5035571;28;20506;-66
2023/06/10 00:36:17;;;;;;;5.67;5.37;;;22.60;46.40;;;;;;5030384;28;20526;-66
2023/06/10 00:38:43;;;;;;;6.00;5.70;;;22.60;46.50;;;;;;5036066;28;20217;-66
2023/06/10 00:41:08;;;;;;;5.43;5.20;;;22.60;46.50;;;;;;5028698;28;20222;-66
2023/06/10 00:43:34;;;;;;;6.07;5.77;;;22.60;46.40;;;;;;5031022;28;20331;-66
2023/06/10 00:46:00;;;;;;;5.50;5.23;;;22.60;46.50;;;;;;5022509;28;20246;-66
2023/06/10 00:48:27;;;;;;;4.87;4.67;;;22.60;46.50;;;;;;5017197;28;20236;-66
2023/06/10 00:50:52;;;;;;;5.17;4.87;;;22.60;46.50;;;;;;5029531;28;20455;-66
2023/06/10 00:53:19;;;;;;;5.00;4.80;;;22.60;46.50;;;;;;5031771;28;20482;-66
2023/06/10 00:55:44;;;;;;;5.30;5.10;;;22.60;46.50;;;;;;5031044;28;20226;-65
2023/06/10 00:58:10;;;;;;;5.17;4.97;;;22.60;46.50;;;;;;5032229;28;20465;-66
2023/06/10 01:00:36;;;;;;;5.60;5.30;;;22.60;46.50;;;;;;5031725;28;20225;-65
2023/06/10 01:03:07;;;;;;;5.00;4.80;;;22.60;46.50;;;;;;5032441;28;20210;-65
2023/06/10 01:05:36;;;;;;;4.90;4.70;;;22.60;46.50;;;;;;5032257;28;20222;-66
2023/06/10 01:08:33;;;;;;;5.70;5.40;;;22.60;46.50;;;;;;5032946;28;20467;-66
2023/06/10 01:11:01;;;;;;;5.33;5.13;;;22.60;46.50;;;;;;5033692;28;20468;-66
2023/06/10 01:13:28;;;;;;;5.40;5.10;;;22.60;46.50;;;;;;5032267;28;21169;-66
2023/06/10 01:15:58;;;;;;;4.97;4.77;;;22.60;46.50;;;;;;5026725;28;21322;-66
2023/06/10 01:18:30;;;;;;;5.50;5.30;;;22.60;46.50;;;;;;5019877;28;21009;-66
2023/06/10 01:20:56;;;;;;;5.43;5.13;;;22.60;46.50;;;;;;5032636;28;20509;-66
2023/06/10 01:23:21;;;;;;;5.10;4.90;;;22.60;46.50;;;;;;5034340;28;20460;-66
2023/06/10 01:26:08;;;;;;;5.23;4.93;;;22.60;46.50;;;;;;5032945;28;20222;-66
2023/06/10 01:28:57;;;;;;;5.30;5.10;;;22.60;46.50;;;;;;5033754;28;20207;-66
2023/06/10 01:31:41;;;;;;;6.00;5.70;;;22.60;47.20;;;;;;5032651;28;20467;-65
2023/06/10 01:34:14;;;;;;;5.37;5.07;;;22.60;46.50;;;;;;5034421;28;21447;-66
2023/06/10 01:36:41;;;;;;;5.93;5.63;;;22.50;46.50;;;;;;5033547;28;20451;-66
2023/06/10 01:39:08;;;;;;;5.70;5.40;;;22.50;46.50;;;;;;5032054;28;21047;-66
2023/06/10 01:41:35;;;;;;;5.33;5.13;;;22.60;46.60;;;;;;5032603;28;20575;-66
2023/06/10 01:44:01;;;;;;;5.80;5.50;;;22.50;46.50;;;;;;5035501;28;20997;-66
2023/06/10 01:46:26;;;;;;;5.83;5.53;;;22.60;46.60;;;;;;5033803;28;20573;-66
2023/06/10 01:48:52;;;;;;;5.50;5.20;;;22.60;46.50;;;;;;5036231;28;20218;-66
2023/06/10 01:51:18;;;;;;;5.03;4.83;;;22.50;46.40;;;;;;5031645;28;20241;-66
2023/06/10 01:53:43;;;;;;;4.87;4.67;;;22.60;46.60;;;;;;5033757;28;20261;-65
2023/06/10 01:56:09;;;;;;;5.17;4.93;;;22.60;46.50;;;;;;5033257;28;20242;-66
2023/06/10 01:58:35;;;;;;;4.97;4.77;;;22.50;46.40;;;;;;5031029;28;20241;-65
2023/06/10 02:01:00;;;;;;;5.60;5.30;;;22.50;46.50;;;;;;5035664;28;20860;-65
2023/06/10 02:03:26;;;;;;;5.80;5.50;;;22.60;46.50;;;;;;5033156;28;20230;-65
2023/06/10 02:05:52;;;;;;;5.83;5.63;;;22.50;46.50;;;;;;5031439;28;20218;-65
2023/06/10 02:08:17;;;;;;;4.70;4.50;;;22.60;46.50;;;;;;5033750;28;20233;-66
2023/06/10 02:10:43;;;;;;;5.30;5.10;;;22.50;46.40;;;;;;5033692;28;20355;-66
2023/06/10 02:13:08;;;;;;;5.00;4.80;;;22.60;46.60;;;;;;5031958;28;20225;-66
2023/06/10 02:15:34;;;;;;;5.50;5.30;;;22.60;46.50;;;;;;5033444;28;20356;-65
2023/06/10 02:18:00;;;;;;;5.20;5.00;;;22.60;46.60;;;;;;5033471;28;20271;-66
2023/06/10 02:20:26;;;;;;;5.80;5.43;;;22.60;46.60;;;;;;5035265;28;21399;-66
2023/06/10 02:22:51;;;;;;;5.77;5.47;;;22.50;46.50;;;;;;5038354;28;20626;-65
2023/06/10 02:25:17;;;;;;;5.87;5.57;;;22.60;46.50;;;;;;5033312;28;20254;-66
2023/06/10 02:27:42;;;;;;;5.77;5.57;;;22.60;46.60;;;;;;5038879;28;20222;-66
2023/06/10 02:30:10;;;;;;;5.40;5.10;;;22.50;46.50;;;;;;5037540;28;20244;-65
2023/06/10 02:32:36;;;;;;;5.23;5.03;;;22.60;46.70;;;;;;5029485;28;20226;-65
2023/06/10 02:35:01;;;;;;;5.73;5.43;;;22.60;46.70;;;;;;5035322;28;21091;-65
2023/06/10 02:37:27;;;;;;;5.13;4.93;;;22.60;46.60;;;;;;5031954;28;20222;-66
2023/06/10 02:39:52;;;;;;;5.90;5.70;;;22.50;46.60;;;;;;5036457;28;21199;-66
2023/06/10 02:42:18;;;;;;;4.90;4.70;;;22.50;46.50;;;;;;5034327;28;20342;-66
2023/06/10 02:44:43;;;;;;;5.53;5.30;;;22.50;46.50;;;;;;5036295;28;20234;-66
2023/06/10 02:47:09;;;;;;;5.77;5.47;;;22.50;46.60;;;;;;5034369;28;20315;-66
2023/06/10 02:49:34;;;;;;;5.87;5.50;;;22.60;46.70;;;;;;5030595;28;20226;-66
2023/06/10 02:52:00;;;;;;;5.27;5.07;;;22.50;46.60;;;;;;5032505;28;20229;-66
2023/06/10 02:54:26;;;;;;;5.50;5.20;;;22.50;46.50;;;;;;5031723;28;20705;-66
2023/06/10 02:56:52;;;;;;;6.30;6.00;;;22.60;46.60;;;;;;5029915;28;20253;-66
2023/06/10 02:59:18;;;;;;;5.60;5.30;;;22.50;47.30;;;;;;5037248;28;20218;-66
2023/06/10 03:01:43;;;;;;;5.50;5.30;;;22.60;46.60;;;;;;5033163;28;20478;-66
2023/06/10 03:04:09;;;;;;;5.60;5.40;;;22.50;46.60;;;;;;5050483;28;20654;-66
2023/06/10 03:06:35;;;;;;;5.60;5.30;;;22.50;46.50;;;;;;5032038;28;20229;-66
2023/06/10 03:09:04;;;;;;;5.80;5.50;;;22.50;46.50;;;;;;5037267;28;21023;-66
2023/06/10 03:11:29;;;;;;;5.60;5.40;;;22.50;46.60;;;;;;5035833;28;20539;-66
2023/06/10 03:13:57;;;;;;;5.30;5.10;;;22.50;46.90;;;;;;5037442;28;20993;-66
2023/06/10 03:16:22;;;;;;;5.73;5.43;;;22.50;46.60;;;;;;5035525;28;20222;-66
2023/06/10 03:18:49;;;;;;;6.13;5.83;;;22.50;46.60;;;;;;5039472;28;20528;-66
2023/06/10 03:21:14;;;;;;;5.20;4.90;;;22.50;46.60;;;;;;5023385;28;20245;-66
2023/06/10 03:23:40;;;;;;;5.50;5.30;;;22.50;46.60;;;;;;5038812;28;20534;-65
2023/06/10 03:26:05;;;;;;;5.53;5.23;;;22.50;46.60;;;;;;5034236;28;20339;-65
2023/06/10 03:28:31;;;;;;;6.53;6.07;;;22.50;46.50;;;;;;5028614;28;20587;-67
2023/06/10 03:30:57;;;;;;;7.00;6.60;;;22.50;46.60;;;;;;5038268;28;20367;-67
2023/06/10 03:33:22;;;;;;;6.90;6.60;;;22.60;46.50;;;;;;5024541;28;20222;-66
2023/06/10 03:35:48;;;;;;;7.20;6.80;;;22.60;46.40;;;;;;5035498;28;20222;-67
2023/06/10 03:38:14;;;;;;;6.97;6.47;;;22.60;46.30;;;;;;5031519;28;20226;-66
2023/06/10 03:40:40;;;;;;;6.83;6.43;;;22.60;46.20;;;;;;5038371;28;20336;-66
2023/06/10 03:43:05;;;;;;;7.33;6.83;;;22.60;46.20;;;;;;5036622;28;20252;-66
2023/06/10 03:45:31;;;;;;;7.47;7.07;;;22.60;46.10;;;;;;5036732;28;20275;-66
2023/06/10 03:47:57;;;;;;;8.23;7.63;;;22.60;46.10;;;;;;5028220;28;20234;-66
2023/06/10 03:50:24;;;;;;;7.73;7.13;;;22.60;46.00;;;;;;5036943;28;20456;-66
2023/06/10 03:52:50;;;;;;;6.90;6.50;;;22.60;46.00;;;;;;5036340;28;20687;-66
2023/06/10 03:55:16;;;;;;;7.47;7.00;;;22.60;45.90;;;;;;5034313;28;20454;-66
2023/06/10 03:57:42;;;;;;;7.47;7.07;;;22.60;45.90;;;;;;5031186;28;20320;-66
2023/06/10 04:00:11;;;;;;;7.43;6.83;;;22.60;45.90;;;;;;5034895;28;20447;-66
2023/06/10 04:02:37;;;;;;;6.67;6.37;;;22.60;45.80;;;;;;5030279;28;20446;-67
2023/06/10 04:05:03;;;;;;;7.20;6.80;;;22.60;45.80;;;;;;5029665;28;20464;-66
2023/06/10 04:07:30;;;;;;;8.17;7.63;;;22.60;45.80;;;;;;5035205;28;20251;-66
2023/06/10 04:09:56;;;;;;;7.77;7.37;;;22.60;45.80;;;;;;5027483;28;20567;-67
2023/06/10 04:12:21;;;;;;;6.47;6.17;;;22.60;45.80;;;;;;5032815;28;21041;-66
2023/06/10 04:14:47;;;;;;;6.63;6.33;;;22.60;45.80;;;;;;5033061;28;20292;-66
2023/06/10 04:17:12;;;;;;;6.00;5.70;;;22.60;45.90;;;;;;5032138;28;20301;-66
2023/06/10 04:19:38;;;;;;;6.40;6.00;;;22.60;46.00;;;;;;5028662;28;20241;-66
2023/06/10 04:22:05;;;;;;;6.57;6.27;;;22.60;46.10;;;;;;5027232;28;20218;-67
2023/06/10 04:24:30;;;;;;;6.80;6.50;;;22.60;46.10;;;;;;5034289;28;20301;-66
2023/06/10 04:26:56;;;;;;;6.30;6.00;;;22.60;46.20;;;;;;5023210;28;20485;-66
2023/06/10 04:29:21;;;;;;;5.70;5.50;;;22.60;46.20;;;;;;5029660;28;21175;-66
2023/06/10 04:31:47;;;;;;;6.03;5.83;;;22.60;46.30;;;;;;5022442;28;20279;-67
2023/06/10 04:34:13;;;;;;;5.40;5.20;;;22.60;46.20;;;;;;5032458;28;20670;-67
2023/06/10 04:36:38;;;;;;;5.90;5.60;;;22.60;46.30;;;;;;5029148;28;20718;-67
2023/06/10 04:39:05;;;;;;;5.90;5.60;;;22.60;46.30;;;;;;5020087;28;20276;-68
2023/06/10 04:41:31;;;;;;;6.53;6.10;;;22.60;46.30;;;;;;5020508;28;20317;-67
2023/06/10 04:43:57;;;;;;;6.10;5.80;;;22.60;46.20;;;;;;5026333;28;20475;-67
2023/06/10 04:46:24;;;;;;;6.80;6.50;;;22.60;46.10;;;;;;5026164;28;20226;-67
2023/06/10 04:48:49;;;;;;;6.60;6.30;;;22.60;46.10;;;;;;5032509;28;20476;-67
2023/06/10 04:51:15;;;;;;;6.87;6.47;;;22.60;46.00;;;;;;5031020;28;20820;-67
2023/06/10 04:53:40;;;;;;;7.07;6.67;;;22.60;46.80;;;;;;5034708;28;20256;-67
2023/06/10 04:56:07;;;;;;;6.40;6.00;;;22.60;46.00;;;;;;5026021;28;20808;-66
2023/06/10 04:58:33;;;;;;;6.10;5.80;;;22.70;46.10;;;;;;5032535;28;20743;-67
2023/06/10 05:00:59;;;;;;;6.30;6.00;;;22.60;45.90;;;;;;5032063;28;20455;-67
2023/06/10 05:03:25;;;;;;;6.83;6.00;;;22.60;45.90;;;;;;5032642;28;20210;-66
2023/06/10 05:05:51;;;;;;;6.40;6.10;;;22.60;45.90;;;;;;5028999;28;20464;-66
2023/06/10 05:08:16;;;;;;;6.97;6.67;;;22.70;46.00;;;;;;5035677;28;20734;-67
2023/06/10 05:10:42;;;;;;;7.60;7.20;;;22.70;46.00;;;;;;5034186;28;20227;-66
2023/06/10 05:13:07;;;;;;;7.20;6.80;;;22.70;45.80;;;;;;5032914;28;20222;-67
2023/06/10 05:15:33;;;;;;;5.93;5.67;;;22.70;45.90;;;;;;5027657;28;20234;-66
2023/06/10 05:17:58;;;;;;;6.70;6.30;;;22.70;45.80;;;;;;5036311;28;20218;-66
2023/06/10 05:20:25;;;;;;;5.87;5.57;;;22.70;45.80;;;;;;5031532;28;20214;-66
2023/06/10 05:22:51;;;;;;;6.70;6.30;;;22.70;46.00;;;;;;5031059;28;20241;-66
2023/06/10 05:25:16;;;;;;;6.83;6.43;;;22.70;46.00;;;;;;5031132;28;20550;-66
2023/06/10 05:27:42;;;;;;;5.80;5.30;;;22.70;46.00;;;;;;5033956;28;20218;-66
2023/06/10 05:30:10;;;;;;;6.33;6.00;;;22.70;46.10;;;;;;5028863;28;20247;-65
2023/06/10 05:32:36;;;;;;;6.30;6.00;;;22.70;46.10;;;;;;5027092;28;20455;-66
2023/06/10 05:35:03;;;;;;;5.93;5.63;;;22.60;46.00;;;;;;5033477;28;21088;-65
2023/06/10 05:37:29;;;;;;;6.00;5.70;;;22.70;46.10;;;;;;5032669;28;20222;-65
2023/06/10 05:39:54;;;;;;;6.50;6.20;;;22.70;46.20;;;;;;5033263;28;20521;-66
2023/06/10 05:42:20;;;;;;;5.70;5.40;;;22.60;46.00;;;;;;5027281;28;20220;-66
2023/06/10 05:44:45;;;;;;;6.10;5.80;;;22.60;46.10;;;;;;5033115;28;20907;-65
2023/06/10 05:47:11;;;;;;;6.27;5.97;;;22.60;46.10;;;;;;5034754;28;20283;-66
2023/06/10 05:49:36;;;;;;;6.00;5.70;;;22.60;46.10;;;;;;5034165;28;20355;-67
2023/06/10 05:52:02;;;;;;;6.90;6.50;;;22.60;46.10;;;;;;5024221;28;20233;-67
2023/06/10 05:54:27;;;;;;;7.10;6.57;;;22.60;46.10;;;;;;5031423;28;21112;-66
2023/06/10 05:56:53;;;;;;;6.10;5.80;;;22.60;46.10;;;;;;5033268;28;20256;-66
2023/06/10 05:59:19;;;;;;;6.03;5.77;;;22.70;46.20;;;;;;5038713;28;20233;-66
2023/06/10 06:01:44;;;;;;;6.30;6.00;;;22.60;46.20;;;;;;5034299;28;20272;-66
2023/06/10 06:04:10;;;;;;;6.43;6.10;;;22.60;46.20;;;;;;5019143;28;20709;-66
2023/06/10 06:06:38;;;;;;;5.87;5.57;;;22.70;46.30;;;;;;5032636;28;20325;-66
2023/06/10 06:09:03;;;;;;;6.40;6.00;;;22.70;46.30;;;;;;5038322;28;20829;-66
2023/06/10 06:11:29;;;;;;;6.27;5.97;;;22.70;46.30;;;;;;5034883;28;20459;-66
2023/06/10 06:13:55;;;;;;;7.00;6.37;;;22.70;46.30;;;;;;5038811;28;20224;-65
2023/06/10 06:16:21;;;;;;;6.20;5.90;;;22.60;47.00;;;;;;5034000;28;20218;-66
2023/06/10 06:18:46;;;;;;;5.90;5.60;;;22.70;46.40;;;;;;5036997;28;20485;-65
2023/06/10 06:21:12;;;;;;;6.07;5.77;;;22.60;46.30;;;;;;5040028;28;20224;-65
2023/06/10 06:23:37;;;;;;;5.33;5.03;;;22.70;46.40;;;;;;5037630;28;20230;-65
2023/06/10 06:26:03;;;;;;;6.07;5.77;;;22.60;46.30;;;;;;5036558;28;20215;-65
2023/06/10 06:28:29;;;;;;;5.50;5.30;;;22.60;46.30;;;;;;5015205;28;20218;-65
2023/06/10 06:30:55;;;;;;;5.60;5.40;;;22.70;46.40;;;;;;5035132;28;20217;-65
2023/06/10 06:33:21;;;;;;;5.73;5.50;;;22.70;46.50;;;;;;5034861;28;20301;-65
2023/06/10 06:35:47;;;;;;;6.57;6.27;;;22.70;46.40;;;;;;5032764;28;20528;-65
2023/06/10 06:38:12;;;;;;;6.63;6.33;;;22.70;46.50;;;;;;5032503;28;20222;-66
2023/06/10 06:40:38;;;;;;;6.00;5.70;;;22.70;46.40;;;;;;5034216;28;20349;-65
2023/06/10 06:43:03;;;;;;;5.83;5.63;;;22.70;46.40;;;;;;5031104;28;20225;-65
2023/06/10 06:45:29;;;;;;;6.10;5.80;;;22.70;46.50;;;;;;5033887;28;20245;-67
2023/06/10 06:47:55;;;;;;;6.23;5.70;;;22.70;46.50;;;;;;5031849;28;20673;-66
2023/06/10 06:50:21;;;;;;;5.80;5.60;;;22.70;46.50;;;;;;5035910;28;20233;-67
2023/06/10 06:52:47;;;;;;;6.20;5.90;;;22.70;46.50;;;;;;5032611;28;20481;-67
2023/06/10 06:55:12;;;;;;;5.63;5.43;;;22.70;46.50;;;;;;5036582;28;20723;-67
2023/06/10 06:57:38;;;;;;;6.00;5.70;;;22.70;47.00;;;;;;5035946;28;20728;-67
2023/06/10 07:00:04;;;;;;;6.47;6.17;;;22.70;46.50;;;;;;5034744;28;20309;-67
2023/06/10 07:02:31;;;;;;;6.53;6.13;;;22.70;46.50;;;;;;5032516;28;20218;-66
2023/06/10 07:04:58;;;;;;;6.27;5.97;;;22.70;46.50;;;;;;5031107;28;20868;-66
2023/06/10 07:07:24;;;;;;;6.03;5.63;;;22.70;46.50;;;;;;5036553;28;20825;-67
2023/06/10 07:09:50;;;;;;;6.23;5.93;;;22.70;46.50;;;;;;5031701;28;20482;-66
2023/06/10 07:12:15;;;;;;;7.07;6.50;;;22.70;46.50;;;;;;5034495;28;21559;-67
2023/06/10 07:14:41;;;;;;;5.50;5.30;;;22.70;46.60;;;;;;5037743;28;20306;-66
2023/06/10 07:17:07;;;;;;;5.80;5.60;;;22.70;46.60;;;;;;5028304;28;20975;-66
2023/06/10 07:19:32;;;;;;;5.90;5.50;;;22.70;46.50;;;;;;5035206;28;20226;-66
2023/06/10 07:21:58;;;;;;;6.60;5.97;;;22.70;46.50;;;;;;5037613;28;20321;-66
2023/06/10 07:24:23;;;;;;;5.93;5.57;;;22.70;46.50;;;;;;5034050;28;20255;-67
2023/06/10 07:26:49;;;;;;;6.10;5.80;;;22.70;46.60;;;;;;5026340;28;20279;-66
2023/06/10 07:29:14;;;;;;;6.70;6.30;;;22.70;46.60;;;;;;5031091;28;20272;-66
2023/06/10 07:31:41;;;;;;;6.00;5.70;;;22.70;46.60;;;;;;5036720;28;20277;-66
2023/06/10 07:34:06;;;;;;;6.30;6.00;;;22.70;46.60;;;;;;5035880;28;20230;-66
2023/06/10 07:36:32;;;;;;;5.70;5.50;;;22.70;46.60;;;;;;5037690;28;20470;-66
2023/06/10 07:38:57;;;;;;;5.87;5.57;;;22.70;46.70;;;;;;5038064;28;20244;-66
2023/06/10 07:41:25;;;;;;;6.13;5.83;;;22.70;46.60;;;;;;5037605;28;20221;-66
2023/06/10 07:43:54;;;;;;;5.80;5.53;;;22.70;46.70;;;;;;5039017;28;20843;-66
2023/06/10 07:46:23;;;;;;;6.40;6.10;;;22.70;46.70;;;;;;5036710;28;20958;-66
2023/06/10 07:48:49;;;;;;;6.73;6.43;;;22.70;46.60;;;;;;5035186;28;20865;-66
2023/06/10 07:51:17;;;;;;;5.67;5.47;;;22.70;46.60;;;;;;5028413;28;20464;-67
2023/06/10 07:53:43;;;;;;;6.20;5.90;;;22.70;46.60;;;;;;5036320;28;21510;-67
2023/06/10 07:56:08;;;;;;;6.53;6.13;;;22.70;46.70;;;;;;5038538;28;20454;-67
2023/06/10 07:58:34;;;;;;;6.40;5.90;;;22.70;46.70;;;;;;5034860;28;20317;-67
2023/06/10 08:00:59;;;;;;;6.90;6.50;;;22.70;46.60;;;;;;5028834;28;20218;-67
2023/06/10 08:03:25;;;;;;;6.53;6.13;;;22.70;46.70;;;;;;5034956;28;21230;-67
2023/06/10 08:05:50;;;;;;;6.50;6.20;;;22.70;46.60;;;;;;5032573;28;20225;-66
2023/06/10 08:08:16;;;;;;;6.70;6.40;;;22.70;46.70;;;;;;5037391;28;20222;-67
2023/06/10 08:10:41;;;;;;;6.33;6.03;;;22.70;46.70;;;;;;5035191;28;20245;-66
2023/06/10 08:13:08;;;;;;;6.30;6.00;;;22.70;46.70;;;;;;5038443;28;21187;-66
2023/06/10 08:15:33;;;;;;;5.87;5.67;;;22.70;46.70;;;;;;5025273;28;20227;-66
2023/06/10 08:17:59;;;;;;;6.20;5.90;;;22.70;46.70;;;;;;5019866;28;20482;-66
2023/06/10 08:20:25;;;;;;;6.30;6.00;;;22.70;46.70;;;;;;5033848;28;20304;-66
2023/06/10 08:22:50;;;;;;;6.50;6.20;;;22.70;46.80;;;;;;5040831;28;20271;-66
2023/06/10 08:25:16;;;;;;;6.37;6.07;;;22.70;46.70;;;;;;5027417;28;20230;-66
2023/06/10 08:27:41;;;;;;;6.07;5.77;;;22.70;46.70;;;;;;5035429;28;20229;-66
2023/06/10 08:30:08;;;;;;;6.27;5.90;;;22.70;46.80;;;;;;5038019;28;20241;-66
2023/06/10 08:32:33;;;;;;;5.77;5.47;;;22.70;46.80;;;;;;5033551;28;20881;-66
2023/06/10 08:34:59;;;;;;;6.13;5.83;;;22.70;46.70;;;;;;5035058;28;20471;-66
2023/06/10 08:37:25;;;;;;;6.03;5.83;;;22.70;46.80;;;;;;5037003;28;20240;-66
2023/06/10 08:39:50;;;;;;;26.33;7.17;;;22.70;46.70;;;;;;5034051;28;20232;-72
2023/06/10 08:42:33;;;;;;;6.50;6.10;;;22.70;47.00;;;;;;5036913;28;20704;-70
2023/06/10 08:45:01;;;;;;;6.37;6.07;;;22.70;46.80;;;;;;5032077;28;20214;-71
2023/06/10 08:47:31;;;;;;;6.73;6.37;;;22.70;47.00;;;;;;5039632;28;20460;-71
2023/06/10 08:50:03;;;;;;;8.50;7.00;;;22.70;46.90;;;;;;5033017;28;21046;-75
2023/06/10 08:52:34;;;;;;;6.20;5.70;;;22.70;46.70;;;;;;5035393;28;20825;-72
2023/06/10 08:55:04;;;;;;;6.53;6.17;;;22.70;46.70;;;;;;5035505;28;20479;-68
2023/06/10 08:57:30;;;;;;;6.47;6.17;;;22.80;46.80;;;;;;5037186;28;20470;-71
2023/06/10 08:59:57;;;;;;;6.40;6.10;;;22.70;46.60;;;;;;5036175;28;20926;-71
2023/06/10 09:02:24;;;;;;;6.40;6.10;;;22.80;46.90;;;;;;5031889;28;20592;-69
2023/06/10 09:04:51;;;;;;;6.40;6.10;;;22.70;46.70;;;;;;5038147;28;20482;-69
2023/06/10 09:07:17;;;;;;;6.27;5.97;;;22.70;46.70;;;;;;5035856;28;20466;-69
2023/06/10 09:09:44;;;;;;;5.90;5.60;;;22.70;46.70;;;;;;5033111;28;20920;-68
2023/06/10 09:12:10;;;;;;;6.40;5.90;;;22.70;46.80;;;;;;5032662;28;20459;-67
2023/06/10 09:14:36;;;;;;;6.40;5.83;;;22.70;46.80;;;;;;5037292;28;21018;-67
2023/06/10 09:17:03;;;;;;;6.00;5.70;;;22.70;47.00;;;;;;5034015;28;20570;-67
2023/06/10 09:19:28;;;;;;;6.13;5.83;;;22.70;47.00;;;;;;5036596;28;20214;-67
2023/06/10 09:21:54;;;;;;;6.40;6.00;;;22.70;47.00;;;;;;5034739;28;20462;-67
2023/06/10 09:24:22;;;;;;;5.80;5.50;;;22.70;47.00;;;;;;5031482;28;20210;-69
2023/06/10 09:26:47;;;;;;;6.17;5.87;;;22.70;47.10;;;;;;5035678;28;20230;-68
2023/06/10 09:29:13;;;;;;;6.43;6.03;;;22.70;47.10;;;;;;5030695;28;20463;-68
2023/06/10 09:31:40;;;;;;;6.20;5.77;;;22.70;47.10;;;;;;5029732;28;20221;-67
2023/06/10 09:34:17;;;;;;;5.60;5.37;;;22.70;47.10;;;;;;5035650;28;20464;-67
2023/06/10 09:36:42;;;;;;;6.20;5.90;;;22.70;47.10;;;;;;5032290;28;20454;-72
2023/06/10 09:39:18;;;;;;;6.30;6.00;;;22.70;47.00;;;;;;5032628;28;20547;-70
2023/06/10 09:41:45;;;;;;;5.60;5.33;;;22.70;47.10;;;;;;5033353;28;20236;-68
2023/06/10 09:44:21;;;;;;;6.20;5.47;;;22.70;47.10;;;;;;5038006;28;20458;-68
2023/06/10 09:46:49;;;;;;;5.57;5.37;;;22.70;47.10;;;;;;5033256;28;20872;-68
2023/06/10 09:49:16;;;;;;;5.93;5.53;;;22.70;47.10;;;;;;5036466;28;21210;-68
2023/06/10 09:51:53;;;;;;;6.10;5.80;;;22.70;47.10;;;;;;5033067;28;20997;-68
2023/06/10 09:54:20;;;;;;;5.43;5.13;;;22.70;47.10;;;;;;5034357;28;20459;-74
2023/06/10 09:56:51;;;;;;;5.80;5.33;;;22.70;47.10;;;;;;5033731;28;20473;-74
2023/06/10 09:59:31;;;;;;;5.50;5.30;;;22.70;47.10;;;;;;5034526;28;20451;-75
2023/06/10 10:01:56;;;;;;;6.00;5.70;;;22.80;47.10;;;;;;5027930;28;20451;-74
2023/06/10 10:04:26;;;;;;;6.07;5.77;;;22.70;47.10;;;;;;5037097;28;20532;-74
2023/06/10 10:06:52;;;;;;;6.10;5.80;;;22.70;47.00;;;;;;5036632;28;20823;-74
2023/06/10 10:09:18;;;;;;;5.33;5.03;;;22.80;47.10;;;;;;5040160;28;20454;-74
2023/06/10 10:11:44;;;;;;;5.97;5.50;;;22.80;46.80;;;;;;5035490;28;20242;-74
2023/06/10 10:14:11;;;;;;;6.20;5.90;;;22.80;46.70;;;;;;5036462;28;20286;-75
2023/06/10 10:16:40;;;;;;;6.10;5.70;;;22.80;46.70;;;;;;5036072;28;21028;-75
2023/06/10 10:19:31;;;;;;;6.17;5.87;;;22.80;46.60;;;;;;5036266;28;21956;-74
2023/06/10 10:22:03;;;;;;;6.00;5.70;;;22.80;46.60;;;;;;5035264;28;21285;-75
2023/06/10 10:24:39;;;;;;;5.53;5.33;;;22.90;46.70;;;;;;5038273;28;20447;-74
2023/06/10 10:27:13;;;;;;;6.17;5.87;;;22.80;46.60;;;;;;5035697;28;21032;-75
2023/06/10 10:29:40;;;;;;;5.80;5.60;;;22.80;46.70;;;;;;5034368;28;20488;-75
2023/06/10 10:32:08;;;;;;;5.70;5.40;;;22.80;46.70;;;;;;5034009;28;20557;-75
2023/06/10 10:34:49;;;;;;;5.70;5.40;;;22.80;46.70;;;;;;5038489;28;21424;-76
2023/06/10 10:37:17;;;;;;;6.30;5.90;;;22.80;46.70;;;;;;5034420;28;20469;-75
2023/06/10 10:39:42;;;;;;;5.60;5.40;;;22.80;46.70;;;;;;5034336;28;21797;-77
2023/06/10 10:42:10;;;;;;;5.97;5.67;;;22.80;46.70;;;;;;5032756;28;20497;-76
2023/06/10 10:44:37;;;;;;;5.83;5.53;;;22.80;46.70;;;;;;5027278;28;20221;-76
2023/06/10 10:47:06;;;;;;;5.10;4.90;;;22.80;46.80;;;;;;5030121;28;20585;-77
2023/06/10 10:49:33;;;;;;;5.63;5.33;;;22.80;46.70;;;;;;5040070;28;21039;-77
2023/06/10 10:52:01;;;;;;;5.87;5.57;;;22.90;46.80;;;;;;5041380;28;20451;-77
2023/06/10 10:54:34;;;;;;;5.23;4.93;;;22.90;46.80;;;;;;5042750;28;21083;-75
2023/06/10 10:57:13;;;;;;;6.10;5.80;;;22.90;46.80;;;;;;5036214;28;20475;-75
2023/06/10 11:00:04;;;;;;;5.70;5.50;;;22.90;46.70;;;;;;5038036;28;20431;-75
2023/06/10 11:02:46;;;;;;;5.63;5.33;;;22.90;46.70;;;;;;5040167;28;20442;-75
2023/06/10 11:05:15;;;;;;;4.73;4.53;;;22.90;46.70;;;;;;5037289;28;20435;-75
2023/06/10 11:07:51;;;;;;;5.50;5.30;;;22.90;46.70;;;;;;5040309;28;20455;-75
2023/06/10 11:10:16;;;;;;;5.30;5.00;;;22.90;46.70;;;;;;5031051;28;20465;-75
2023/06/10 11:12:51;;;;;;;5.23;5.03;;;22.90;46.70;;;;;;5039398;28;20439;-75
2023/06/10 11:15:23;;;;;;;4.90;4.70;;;22.90;46.70;;;;;;5040166;28;20234;-77
2023/06/10 11:18:12;;;;;;;5.73;5.43;;;23.00;46.80;;;;;;5038945;28;20470;-75
2023/06/10 11:20:49;;;;;;;6.10;5.80;;;22.90;46.70;;;;;;5029260;28;20757;-76
2023/06/10 11:23:27;;;;;;;5.47;5.17;;;22.90;46.70;;;;;;5038531;28;20524;-76
2023/06/10 11:26:14;;;;;;;5.40;5.20;;;23.00;46.90;;;;;;5040124;28;20489;-76
2023/06/10 11:29:02;;;;;;;4.97;4.77;;;22.90;46.80;;;;;;5036229;28;20452;-76
2023/06/10 11:31:29;;;;;;;5.60;5.30;;;22.90;46.80;;;;;;5037291;28;20462;-77
2023/06/10 11:34:06;;;;;;;5.57;5.27;;;23.00;47.00;;;;;;5040904;28;20471;-76
2023/06/10 11:36:33;;;;;;;5.90;5.60;;;22.90;47.00;;;;;;5035024;28;20459;-72
2023/06/10 11:39:04;;;;;;;5.50;5.30;;;22.90;46.90;;;;;;5039502;28;20467;-71
2023/06/10 11:41:30;;;;;;;5.50;5.30;;;23.00;47.10;;;;;;5039769;28;20526;-71
2023/06/10 11:44:00;;;;;;;5.13;4.93;;;22.90;47.00;;;;;;5033650;28;20808;-71
2023/06/10 11:46:27;;;;;;;5.60;5.40;;;22.90;47.10;;;;;;5021424;28;20452;-71
2023/06/10 11:48:58;;;;;;;5.53;5.30;;;22.90;47.10;;;;;;5027611;28;20976;-71
2023/06/10 11:51:38;;;;;;;5.47;5.17;;;22.90;47.10;;;;;;5038579;28;20559;-71
2023/06/10 11:54:04;;;;;;;5.70;5.50;;;22.90;47.10;;;;;;5036085;28;20459;-71
2023/06/10 11:56:31;;;;;;;5.60;5.40;;;22.90;47.20;;;;;;5041798;28;20458;-73
2023/06/10 11:59:04;;;;;;;5.67;5.37;;;22.90;47.20;;;;;;5039228;28;20776;-73
2023/06/10 12:01:29;;;;;;;5.70;5.40;;;22.90;47.20;;;;;;5037521;28;20464;-72
2023/06/10 12:04:08;;;;;;;5.40;5.10;;;22.90;47.20;;;;;;5036814;28;20456;-73
2023/06/10 12:06:50;;;;;;;5.30;5.10;;;22.90;47.20;;;;;;5040752;28;20700;-73
2023/06/10 12:09:32;;;;;;;5.43;5.13;;;22.90;47.20;;;;;;5041823;28;20834;-73
2023/06/10 12:11:59;;;;;;;5.10;4.90;;;22.90;47.20;;;;;;5036397;28;20477;-73
2023/06/10 12:14:57;;;;;;;5.43;5.23;;;22.90;47.20;;;;;;5039491;28;20475;-73
2023/06/10 12:17:32;;;;;;;5.13;4.93;;;22.90;47.20;;;;;;5036520;28;20861;-72
2023/06/10 12:19:58;;;;;;;5.70;5.40;;;22.90;47.20;;;;;;5035956;28;20458;-72
2023/06/10 12:22:24;;;;;;;4.93;4.73;;;22.90;47.20;;;;;;5038943;28;20536;-72
2023/06/10 12:25:04;;;;;;;5.37;5.10;;;22.90;47.20;;;;;;5036709;28;21120;-72
2023/06/10 12:27:31;;;;;;;4.83;4.53;;;22.90;47.20;;;;;;5037476;28;20957;-72
2023/06/10 12:30:04;;;;;;;5.10;4.90;;;22.90;47.20;;;;;;5038190;28;20467;-72
2023/06/10 12:32:45;;;;;;;5.80;5.50;;;22.90;47.20;;;;;;5035458;28;20483;-72
2023/06/10 12:35:12;;;;;;;5.50;5.00;;;22.90;47.20;;;;;;5036789;28;21005;-72
2023/06/10 12:37:39;;;;;;;5.73;5.33;;;22.90;47.20;;;;;;5034524;28;20980;-71
2023/06/10 12:40:06;;;;;;;5.40;5.10;;;22.90;47.20;;;;;;5037195;28;21001;-71
2023/06/10 12:42:34;;;;;;;5.23;5.03;;;22.90;47.20;;;;;;5037653;28;20615;-71
2023/06/10 12:45:02;;;;;;;5.50;5.20;;;22.90;47.20;;;;;;5033938;28;20459;-70
2023/06/10 12:47:36;;;;;;;5.17;4.97;;;22.90;47.30;;;;;;5035048;28;20494;-71
2023/06/10 12:50:03;;;;;;;5.80;5.53;;;22.90;47.20;;;;;;5030640;28;20865;-71
2023/06/10 12:52:28;;;;;;;4.90;4.70;;;22.90;47.20;;;;;;5016456;28;20463;-71